createdAt,value
2023-12-21T00:01:36.724Z,100628.66
2023-12-21T00:04:08.870Z,100615.66
2023-12-21T00:06:41.015Z,100623.53
2023-12-21T00:09:12.979Z,100610.38
2023-12-21T00:11:44.955Z,100594.75
2023-12-21T00:14:16.966Z,100592.25
2023-12-21T00:16:48.906Z,100586.19
2023-12-21T00:19:21.443Z,100581.81
2023-12-21T00:21:54.322Z,100584.38
2023-12-21T00:24:26.306Z,100571.28
2023-12-21T00:26:58.636Z,100573.84
2023-12-21T00:29:31.707Z,100565.25
2023-12-21T00:32:04.049Z,100553.88
2023-12-21T00:34:36.046Z,100554.69
2023-12-21T00:37:08.066Z,100550.28
2023-12-21T00:39:40.066Z,100554.78
2023-12-21T00:42:12.481Z,100548.66
2023-12-21T00:44:44.445Z,100546.94
2023-12-21T00:47:16.464Z,100528.56
2023-12-21T00:49:48.464Z,100513.69
2023-12-21T00:52:20.573Z,100515.47
2023-12-21T00:54:52.659Z,100499.72
2023-12-21T00:57:24.594Z,100504.97
2023-12-21T00:59:56.635Z,100499.81
2023-12-21T01:02:28.600Z,100488.41
2023-12-21T01:05:00.556Z,100489.22
2023-12-21T01:07:32.716Z,100482.22
2023-12-21T01:10:06.537Z,100490.91
2023-12-21T01:12:38.661Z,100485.69
2023-12-21T01:15:10.986Z,100482.22
2023-12-21T01:17:42.963Z,100476.09
2023-12-21T01:20:15.202Z,100460.28
2023-12-21T01:22:47.219Z,100459.44
2023-12-21T01:25:19.241Z,100475.19
2023-12-21T01:27:51.430Z,100480.44
2023-12-21T01:30:24.842Z,100470.84
2023-12-21T01:32:57.377Z,100453.38
2023-12-21T01:35:29.407Z,100462.09
2023-12-21T01:38:01.409Z,100444.59
2023-12-21T01:40:33.377Z,100429.78
2023-12-21T01:43:05.651Z,100440.25
2023-12-21T01:45:37.583Z,100440.13
2023-12-21T01:48:11.677Z,100443.72
2023-12-21T01:50:44.393Z,100427.97
2023-12-21T01:53:17.733Z,100415.59
2023-12-21T01:55:50.032Z,100420.19
2023-12-21T01:58:23.318Z,100415.88
2023-12-21T02:00:59.733Z,100412.31
2023-12-21T02:03:31.855Z,100421.09
2023-12-21T02:06:04.029Z,100422.81
2023-12-21T02:08:36.217Z,100426.28
2023-12-21T02:11:10.739Z,100428.06
2023-12-21T02:13:42.679Z,100428.97
2023-12-21T02:16:24.438Z,100428.97
2023-12-21T02:18:56.873Z,100422.88
2023-12-21T02:21:32.086Z,100407.97
2023-12-21T02:24:18.096Z,100400.69
2023-12-21T02:26:50.329Z,100411.34
2023-12-21T02:29:22.377Z,100405.38
2023-12-21T02:31:54.514Z,100405.38
2023-12-21T02:34:26.634Z,100394.03
2023-12-21T02:36:58.945Z,100373.78
2023-12-21T02:39:31.159Z,100381.78
2023-12-21T02:42:04.358Z,100372.94
2023-12-21T02:44:36.424Z,100370.38
2023-12-21T02:47:08.433Z,100361.66
2023-12-21T02:49:40.432Z,100363.41
2023-12-21T02:52:12.479Z,100358.16
2023-12-21T02:54:44.460Z,100365.22
2023-12-21T02:57:16.493Z,100362.66
2023-12-21T02:59:48.483Z,100361.84
2023-12-21T03:02:20.499Z,100340.84
2023-12-21T03:04:52.588Z,100344.31
2023-12-21T03:07:24.671Z,100353.88
2023-12-21T03:09:57.685Z,100347.75
2023-12-21T03:12:29.666Z,100333.72
2023-12-21T03:15:01.727Z,100332.81
2023-12-21T03:17:33.726Z,100314.53
2023-12-21T03:20:09.194Z,100287.56
2023-12-21T03:22:41.274Z,100263.81
2023-12-21T03:25:13.259Z,100254.22
2023-12-21T03:27:45.281Z,100248.09
2023-12-21T03:30:17.523Z,100248.09
2023-12-21T03:32:49.902Z,100247.25
2023-12-21T03:35:22.122Z,100254.22
2023-12-21T03:37:54.073Z,100239.38
2023-12-21T03:40:26.066Z,100242.97
2023-12-21T03:42:58.077Z,100235.09
2023-12-21T03:45:30.493Z,100230.59
2023-12-21T03:48:02.604Z,100212.25
2023-12-21T03:50:34.697Z,100225.47
2023-12-21T03:53:08.614Z,100208.00
2023-12-21T03:55:40.662Z,100204.47
2023-12-21T03:58:12.801Z,100213.31
2023-12-21T04:00:44.807Z,100206.25
2023-12-21T04:03:16.822Z,100191.34
2023-12-21T04:05:48.856Z,100185.28
2023-12-21T04:08:22.651Z,100185.25
2023-12-21T04:10:54.680Z,100189.59
2023-12-21T04:13:26.707Z,100173.88
2023-12-21T04:15:58.978Z,100182.66
2023-12-21T04:18:31.896Z,100169.59
2023-12-21T04:21:04.177Z,100160.00
2023-12-21T04:23:36.361Z,100153.94
2023-12-21T04:26:08.362Z,100157.47
2023-12-21T04:28:40.457Z,100129.47
2023-12-21T04:31:22.297Z,100138.25
2023-12-21T04:33:54.379Z,100131.31
2023-12-21T04:36:28.472Z,100126.94
2023-12-21T04:39:00.494Z,100123.50
2023-12-21T04:41:32.447Z,100100.78
2023-12-21T04:44:05.476Z,100096.44
2023-12-21T04:46:37.729Z,100094.66
2023-12-21T04:51:55.542Z,100107.88
2023-12-21T04:54:27.554Z,100079.91
2023-12-21T04:56:59.595Z,100072.94
2023-12-21T04:59:31.651Z,100067.75
2023-12-21T05:02:03.648Z,100053.81
2023-12-21T05:04:35.757Z,100048.56
2023-12-21T05:07:11.541Z,100053.03
2023-12-21T05:09:43.522Z,100033.84
2023-12-21T05:12:15.557Z,100031.22
2023-12-21T05:14:47.504Z,100047.88
2023-12-21T05:17:21.175Z,100054.97
2023-12-21T05:19:53.189Z,100045.34
2023-12-21T05:22:25.847Z,100033.97
2023-12-21T05:24:57.940Z,100041.03
2023-12-21T05:27:31.087Z,100045.41
2023-12-21T05:30:03.447Z,100033.97
2023-12-21T05:32:35.494Z,100013.91
2023-12-21T05:35:07.783Z,99999.09
2023-12-21T05:37:40.457Z,100004.34
2023-12-21T05:40:13.810Z,100007.88
2023-12-21T05:42:46.142Z,100000.88
2023-12-21T05:45:18.340Z,99996.53
2023-12-21T05:47:50.417Z,100004.34
2023-12-21T05:50:22.456Z,100015.81
2023-12-21T05:52:54.462Z,100012.34
2023-12-21T05:55:26.546Z,100002.63
2023-12-21T05:57:58.968Z,99998.25
2023-12-21T06:00:30.963Z,100013.19
2023-12-21T06:03:03.059Z,100018.50
2023-12-21T06:05:35.017Z,100019.41
2023-12-21T06:08:07.349Z,100004.53
2023-12-21T06:10:39.400Z,100008.94
2023-12-21T06:13:11.421Z,99994.03
2023-12-21T06:15:43.389Z,99995.81
2023-12-21T06:18:15.486Z,99983.53
2023-12-21T06:20:47.486Z,99980.00
2023-12-21T06:23:19.968Z,99972.91
2023-12-21T06:25:52.086Z,99958.88
2023-12-21T06:28:24.151Z,99932.66
2023-12-21T06:30:56.216Z,99941.38
2023-12-21T06:33:28.371Z,99942.19
2023-12-21T06:36:00.395Z,99960.47
2023-12-21T06:38:32.382Z,99971.91
2023-12-21T06:41:04.563Z,99966.66
2023-12-21T06:43:37.652Z,99953.56
2023-12-21T06:46:15.959Z,99936.06
2023-12-21T06:48:48.318Z,99958.75
2023-12-21T06:51:20.351Z,99936.97
2023-12-21T06:53:52.371Z,99940.47
2023-12-21T06:56:33.157Z,99931.81
2023-12-21T06:59:07.051Z,99907.25
2023-12-21T07:01:39.079Z,99915.22
2023-12-21T07:04:12.826Z,99903.00
2023-12-21T07:06:45.330Z,99891.63
2023-12-21T07:09:18.681Z,99895.97
2023-12-21T07:11:50.733Z,99883.75
2023-12-21T07:14:23.104Z,99875.91
2023-12-21T07:16:55.159Z,99876.84
2023-12-21T07:19:27.204Z,99864.59
2023-12-21T07:21:59.340Z,99860.22
2023-12-21T07:24:31.665Z,99879.47
2023-12-21T07:27:04.852Z,99875.97
2023-12-21T07:29:36.840Z,99851.47
2023-12-21T07:32:08.963Z,99855.91
2023-12-21T07:34:40.958Z,99840.09
2023-12-21T07:37:17.771Z,99840.22
2023-12-21T07:39:49.795Z,99833.22
2023-12-21T07:42:21.716Z,99817.53
2023-12-21T07:44:53.697Z,99804.44
2023-12-21T07:47:25.641Z,99809.72
2023-12-21T07:49:57.764Z,99815.09
2023-12-21T07:52:29.854Z,99813.38
2023-12-21T07:55:03.024Z,99813.41
2023-12-21T07:57:35.083Z,99804.19
2023-12-21T08:00:11.247Z,99805.63
2023-12-21T08:02:46.466Z,99809.94
2023-12-21T08:05:18.917Z,99815.19
2023-12-21T08:07:54.139Z,99802.84
2023-12-21T08:10:26.289Z,99806.38
2023-12-21T08:12:59.654Z,99812.53
2023-12-21T08:15:31.662Z,99795.81
2023-12-21T08:18:04.342Z,99801.03
2023-12-21T08:20:37.801Z,99800.19
2023-12-21T08:23:10.064Z,99789.63
2023-12-21T08:25:42.070Z,99782.59
2023-12-21T08:28:14.261Z,99770.38
2023-12-21T08:30:46.383Z,99772.09
2023-12-21T08:33:18.449Z,99765.91
2023-12-21T08:35:50.709Z,99770.38
2023-12-21T08:38:22.906Z,99736.16
2023-12-21T08:40:54.935Z,99765.06
2023-12-21T08:43:26.960Z,99768.56
2023-12-21T08:45:59.584Z,99754.56
2023-12-21T08:48:31.809Z,99770.31
2023-12-21T08:51:03.815Z,99758.03
2023-12-21T08:53:35.985Z,99765.94
2023-12-21T08:56:08.508Z,99749.31
2023-12-21T08:58:41.109Z,99754.56
2023-12-21T09:01:13.457Z,99740.63
2023-12-21T09:03:45.588Z,99735.41
2023-12-21T09:06:18.588Z,99729.25
2023-12-21T09:08:52.839Z,99722.31
2023-12-21T09:11:29.170Z,99732.84
2023-12-21T09:14:01.112Z,99722.34
2023-12-21T09:16:33.171Z,99705.78
2023-12-21T09:19:05.367Z,99732.09
2023-12-21T09:21:38.865Z,99708.53
2023-12-21T09:24:11.026Z,99693.69
2023-12-21T09:26:42.991Z,99717.41
2023-12-21T09:29:15.077Z,99711.34
2023-12-21T09:31:47.042Z,99688.59
2023-12-21T09:34:19.297Z,99689.47
2023-12-21T09:36:54.284Z,99689.47
2023-12-21T09:39:26.305Z,99699.97
2023-12-21T09:42:04.185Z,99693.03
2023-12-21T09:44:38.228Z,99678.16
2023-12-21T09:47:12.791Z,99689.56
2023-12-21T09:49:51.990Z,99690.47
2023-12-21T09:52:26.143Z,99694.03
2023-12-21T09:54:58.891Z,99679.16
2023-12-21T09:57:30.921Z,99676.63
2023-12-21T10:00:05.399Z,99696.81
2023-12-21T10:02:37.361Z,99667.94
2023-12-21T10:05:09.710Z,99664.50
2023-12-21T10:07:43.682Z,99665.38
2023-12-21T10:10:18.376Z,99674.19
2023-12-21T10:12:50.701Z,99649.66
2023-12-21T10:15:22.912Z,99671.63
2023-12-21T10:17:55.092Z,99655.91
2023-12-21T10:20:27.696Z,99664.72
2023-12-21T10:23:00.361Z,99671.78
2023-12-21T10:25:32.672Z,99666.56
2023-12-21T10:28:05.979Z,99654.28
2023-12-21T10:30:38.983Z,99663.09
2023-12-21T10:33:13.484Z,99662.22
2023-12-21T10:35:45.683Z,99671.94
2023-12-21T10:38:17.800Z,99664.94
2023-12-21T10:40:50.870Z,99678.94
2023-12-21T10:43:22.918Z,99660.53
2023-12-21T10:45:56.039Z,99657.06
2023-12-21T10:48:31.852Z,99643.06
2023-12-21T10:51:05.861Z,99664.16
2023-12-21T10:53:38.699Z,99665.03
2023-12-21T10:56:11.580Z,99658.00
2023-12-21T10:58:44.197Z,99640.50
2023-12-21T11:01:16.817Z,99625.50
2023-12-21T11:03:50.171Z,99642.16
2023-12-21T11:06:22.978Z,99621.13
2023-12-21T11:08:59.029Z,99643.97
2023-12-21T11:11:32.453Z,99617.69
2023-12-21T11:14:04.880Z,99617.75
2023-12-21T11:16:45.416Z,99631.75
2023-12-21T11:19:33.857Z,99640.50
2023-12-21T11:22:07.151Z,99612.38
2023-12-21T11:24:39.175Z,99627.44
2023-12-21T11:27:13.008Z,99608.09
2023-12-21T11:29:45.438Z,99599.34
2023-12-21T11:32:27.886Z,99614.28
2023-12-21T11:35:01.692Z,99596.75
2023-12-21T11:37:35.918Z,99625.69
2023-12-21T11:40:12.317Z,99600.31
2023-12-21T11:42:49.102Z,99605.56
2023-12-21T11:45:30.343Z,99598.56
2023-12-21T11:48:05.788Z,99580.09
2023-12-21T11:50:38.046Z,99587.25
2023-12-21T11:53:14.298Z,99577.69
2023-12-21T11:55:47.987Z,99575.16
2023-12-21T11:58:24.109Z,99579.59
2023-12-21T12:00:57.662Z,99559.44
2023-12-21T12:03:31.284Z,99558.56
2023-12-21T12:06:07.426Z,99559.44
2023-12-21T12:08:42.190Z,99542.81
2023-12-21T12:11:14.783Z,99551.59
2023-12-21T12:13:46.761Z,99563.94
2023-12-21T12:16:19.029Z,99570.97
2023-12-21T12:18:51.375Z,99572.72
2023-12-21T12:21:23.392Z,99558.72
2023-12-21T12:23:55.962Z,99567.44
2023-12-21T12:26:28.891Z,99585.88
2023-12-21T12:29:01.017Z,99570.00
2023-12-21T12:31:33.196Z,99562.03
2023-12-21T12:34:05.517Z,99559.38
2023-12-21T12:36:37.514Z,99554.06
2023-12-21T12:39:12.564Z,99554.91
2023-12-21T12:41:44.508Z,99547.78
2023-12-21T12:44:16.446Z,99529.34
2023-12-21T12:46:49.241Z,99524.91
2023-12-21T12:49:23.568Z,99534.56
2023-12-21T12:51:58.063Z,99528.41
2023-12-21T12:54:33.717Z,99550.31
2023-12-21T12:57:06.093Z,99542.44
2023-12-21T12:59:38.384Z,99535.47
2023-12-21T13:02:10.714Z,99533.75
2023-12-21T13:04:42.888Z,99537.28
2023-12-21T13:07:15.763Z,99531.16
2023-12-21T13:09:49.599Z,99526.78
2023-12-21T13:12:21.550Z,99533.81
2023-12-21T13:14:55.947Z,99551.34
2023-12-21T13:17:27.897Z,99522.41
2023-12-21T13:19:59.969Z,99539.09
2023-12-21T13:22:31.943Z,99532.06
2023-12-21T13:25:05.133Z,99537.31
2023-12-21T13:27:37.129Z,99541.69
2023-12-21T13:30:11.832Z,99542.50
2023-12-21T13:32:44.057Z,99543.34
2023-12-21T13:35:18.398Z,99552.09
2023-12-21T13:37:50.587Z,99538.88
2023-12-21T13:40:23.881Z,99540.66
2023-12-21T13:42:56.476Z,99538.91
2023-12-21T13:45:28.875Z,99559.91
2023-12-21T13:48:01.047Z,99555.56
2023-12-21T13:50:33.095Z,99546.78
2023-12-21T13:53:05.046Z,99547.69
2023-12-21T13:55:37.013Z,99523.13
2023-12-21T13:58:10.081Z,99550.38
2023-12-21T14:00:42.447Z,99574.06
2023-12-21T14:03:16.628Z,99553.03
2023-12-21T14:05:48.741Z,99553.91
2023-12-21T14:08:20.865Z,99552.19
2023-12-21T14:10:52.857Z,99555.72
2023-12-21T14:13:24.852Z,99570.66
2023-12-21T14:15:56.888Z,99558.38
2023-12-21T14:18:28.852Z,99537.28
2023-12-21T14:21:00.837Z,99564.56
2023-12-21T14:23:32.719Z,99565.44
2023-12-21T14:26:06.077Z,99563.72
2023-12-21T14:28:43.983Z,99578.66
2023-12-21T14:31:22.820Z,99588.28
2023-12-21T14:33:54.959Z,99576.91
2023-12-21T14:36:26.974Z,99569.88
2023-12-21T14:38:58.880Z,99560.25
2023-12-21T14:41:32.538Z,99563.75
2023-12-21T14:44:06.666Z,99556.72
2023-12-21T14:46:42.181Z,99565.59
2023-12-21T14:49:14.415Z,99570.81
2023-12-21T14:51:46.591Z,99581.31
2023-12-21T14:54:18.587Z,99574.31
2023-12-21T14:56:50.532Z,99573.44
2023-12-21T14:59:22.501Z,99554.13
2023-12-21T15:01:54.482Z,99562.91
2023-12-21T15:04:26.479Z,99553.22
2023-12-21T15:06:58.542Z,99547.97
2023-12-21T15:09:31.385Z,99552.34
2023-12-21T15:12:04.636Z,99541.81
2023-12-21T15:14:36.646Z,99547.97
2023-12-21T15:17:08.642Z,99558.47
2023-12-21T15:19:40.801Z,99561.97
2023-12-21T15:22:13.107Z,99569.84
2023-12-21T15:24:45.084Z,99623.34
2023-12-21T15:27:17.482Z,99602.31
2023-12-21T15:29:49.884Z,99597.91
2023-12-21T15:32:22.113Z,99600.53
2023-12-21T15:34:54.235Z,99567.22
2023-12-21T15:37:26.320Z,99590.91
2023-12-21T15:39:58.383Z,99576.88
2023-12-21T15:42:30.364Z,99600.56
2023-12-21T15:45:02.365Z,99581.22
2023-12-21T15:47:34.501Z,99607.56
2023-12-21T15:50:06.994Z,99616.31
2023-12-21T15:52:39.253Z,99592.56
2023-12-21T15:55:11.316Z,99580.41
2023-12-21T15:57:43.407Z,99604.78
2023-12-21T16:00:16.989Z,99590.66
2023-12-21T16:02:52.331Z,99611.97
2023-12-21T16:05:24.379Z,99615.19
2023-12-21T16:07:56.397Z,99590.47
2023-12-21T16:10:28.352Z,99593.09
2023-12-21T16:13:00.354Z,99599.22
2023-12-21T16:15:32.381Z,99609.72
2023-12-21T16:18:04.980Z,99601.78
2023-12-21T16:20:37.042Z,99627.16
2023-12-21T16:23:09.266Z,99610.44
2023-12-21T16:25:41.771Z,99637.63
2023-12-21T16:28:14.039Z,99643.75
2023-12-21T16:30:47.540Z,99631.44
2023-12-21T16:33:20.084Z,99638.47
2023-12-21T16:35:52.425Z,99635.00
2023-12-21T16:38:24.493Z,99640.25
2023-12-21T16:40:56.462Z,99631.47
2023-12-21T16:43:28.569Z,99624.50
2023-12-21T16:46:03.339Z,99647.25
2023-12-21T16:48:35.307Z,99622.75
2023-12-21T16:51:09.593Z,99615.72
2023-12-21T16:53:42.642Z,99621.91
2023-12-21T16:56:14.785Z,99652.56
2023-12-21T16:58:46.845Z,99657.66
2023-12-21T17:01:19.858Z,99648.78
2023-12-21T17:03:53.935Z,99652.25
2023-12-21T17:06:27.188Z,99660.09
2023-12-21T17:09:00.185Z,99683.72
2023-12-21T17:11:32.276Z,99653.94
2023-12-21T17:14:04.258Z,99675.81
2023-12-21T17:16:36.247Z,99685.41
2023-12-21T17:19:08.579Z,99703.78
2023-12-21T17:21:40.671Z,99688.00
2023-12-21T17:24:12.872Z,99702.88
2023-12-21T17:26:44.820Z,99700.25
2023-12-21T17:29:16.782Z,99701.16
2023-12-21T17:31:48.947Z,99695.03
2023-12-21T17:34:21.110Z,99687.16
2023-12-21T17:36:53.120Z,99689.78
2023-12-21T17:39:25.130Z,99688.84
2023-12-21T17:41:57.294Z,99695.03
2023-12-21T17:44:29.361Z,99702.97
2023-12-21T17:47:01.327Z,99697.75
2023-12-21T17:49:33.632Z,99713.50
2023-12-21T17:52:06.014Z,99703.88
2023-12-21T17:54:38.024Z,99698.63
2023-12-21T17:57:10.534Z,99696.78
2023-12-21T17:59:42.514Z,99731.91
2023-12-21T18:02:14.504Z,99732.78
2023-12-21T18:04:47.267Z,99738.06
2023-12-21T18:07:21.088Z,99746.78
2023-12-21T18:09:54.692Z,99741.53
2023-12-21T18:12:26.914Z,99782.75
2023-12-21T18:14:59.543Z,99779.22
2023-12-21T18:17:31.701Z,99772.22
2023-12-21T18:20:04.265Z,99779.25
2023-12-21T18:22:36.467Z,99771.38
2023-12-21T18:25:09.004Z,99770.56
2023-12-21T18:27:40.969Z,99768.88
2023-12-21T18:30:12.933Z,99761.78
2023-12-21T18:32:44.974Z,99787.09
2023-12-21T18:35:17.002Z,99794.91
2023-12-21T18:37:49.492Z,99793.88
2023-12-21T18:40:21.691Z,99828.00
2023-12-21T18:42:53.639Z,99842.78
2023-12-21T18:45:25.890Z,99886.44
2023-12-21T18:47:58.560Z,99885.31
2023-12-21T18:50:30.757Z,99877.97
2023-12-21T18:53:03.136Z,99869.72
2023-12-21T18:55:35.114Z,99836.81
2023-12-21T18:58:07.669Z,99849.81
2023-12-21T19:00:39.777Z,99854.06
2023-12-21T19:03:12.483Z,99844.34
2023-12-21T19:05:47.072Z,99872.25
2023-12-21T19:08:19.310Z,99881.72
2023-12-21T19:10:51.519Z,99868.25
2023-12-21T19:13:23.712Z,99881.41
2023-12-21T19:15:57.607Z,99899.72
2023-12-21T19:18:29.847Z,99879.56
2023-12-21T19:21:02.856Z,99876.09
2023-12-21T19:23:34.819Z,99898.94
2023-12-21T19:26:07.689Z,99897.09
2023-12-21T19:28:41.686Z,99903.03
2023-12-21T19:31:19.636Z,99912.63
2023-12-21T19:33:51.953Z,99906.34
2023-12-21T19:36:23.993Z,99916.84
2023-12-21T19:38:56.143Z,99939.59
2023-12-21T19:41:28.177Z,99953.53
2023-12-21T19:44:00.522Z,99940.25
2023-12-21T19:46:33.773Z,99934.94
2023-12-21T19:49:05.814Z,99963.88
2023-12-21T19:51:37.822Z,99951.63
2023-12-21T19:54:10.710Z,99960.34
2023-12-21T19:56:45.983Z,99957.81
2023-12-21T19:59:20.284Z,99962.88
2023-12-21T20:01:52.461Z,99960.25
2023-12-21T20:04:24.602Z,99963.75
2023-12-21T20:06:56.678Z,99960.09
2023-12-21T20:09:28.867Z,99953.63
2023-12-21T20:12:01.708Z,99973.31
2023-12-21T20:14:33.693Z,99973.09
2023-12-21T20:17:05.655Z,99992.19
2023-12-21T20:19:37.827Z,99979.00
2023-12-21T20:22:10.037Z,99964.03
2023-12-21T20:24:42.061Z,99959.56
2023-12-21T20:27:14.071Z,99954.25
2023-12-21T20:29:45.964Z,99979.59
2023-12-21T20:32:17.945Z,99976.00
2023-12-21T20:34:52.490Z,99989.00
2023-12-21T20:37:25.830Z,99984.69
2023-12-21T20:39:57.849Z,99995.16
2023-12-21T20:42:29.857Z,99967.00
2023-12-21T20:45:01.867Z,99968.69
2023-12-21T20:47:34.093Z,99979.25
2023-12-21T20:50:07.239Z,99980.91
2023-12-21T20:52:41.347Z,100002.59
2023-12-21T20:55:15.845Z,99989.44
2023-12-21T20:57:48.171Z,100005.06
2023-12-21T21:00:20.339Z,100006.00
2023-12-21T21:02:52.922Z,100015.59
2023-12-21T21:05:27.017Z,100019.16
2023-12-21T21:07:59.575Z,100002.59
2023-12-21T21:10:31.663Z,100002.59
2023-12-21T21:13:04.166Z,100001.63
2023-12-21T21:15:36.211Z,100006.09
2023-12-21T21:18:08.376Z,100008.88
2023-12-21T21:20:40.444Z,100020.28
2023-12-21T21:23:12.501Z,100020.19
2023-12-21T21:25:45.834Z,100031.50
2023-12-21T21:28:17.852Z,100037.50
2023-12-21T21:30:57.139Z,100033.97
2023-12-21T21:33:32.821Z,100024.50
2023-12-21T21:36:05.305Z,100044.75
2023-12-21T21:38:38.681Z,100032.38
2023-12-21T21:41:20.639Z,100048.97
2023-12-21T21:43:52.738Z,100034.34
2023-12-21T21:46:24.776Z,100006.38
2023-12-21T21:48:57.105Z,100042.81
2023-12-21T21:51:31.792Z,100057.69
2023-12-21T21:54:04.206Z,100054.13
2023-12-21T21:56:39.591Z,100045.44
2023-12-21T21:59:11.772Z,100038.56
2023-12-21T22:01:47.878Z,100041.09
2023-12-21T22:04:20.252Z,100030.38
2023-12-21T22:06:52.313Z,100021.56
2023-12-21T22:09:24.274Z,100014.63
2023-12-21T22:11:56.230Z,100029.50
2023-12-21T22:14:28.271Z,100030.34
2023-12-21T22:17:00.399Z,100028.56
2023-12-21T22:19:32.479Z,100045.06
2023-12-21T22:22:05.135Z,100052.78
2023-12-21T22:24:37.076Z,100041.44
2023-12-21T22:27:09.189Z,100042.25
2023-12-21T22:29:41.245Z,100033.56
2023-12-21T22:32:13.326Z,100025.81
2023-12-21T22:34:47.554Z,100006.69
2023-12-21T22:37:19.656Z,100009.44
2023-12-21T22:39:51.906Z,100015.69
2023-12-21T22:42:25.630Z,100028.91
2023-12-21T22:44:57.766Z,100036.16
2023-12-21T22:47:29.910Z,100048.63
2023-12-21T22:50:02.008Z,100059.28
2023-12-21T22:52:34.356Z,100079.66
2023-12-21T22:55:06.625Z,100070.25
2023-12-21T22:57:38.703Z,100100.91
2023-12-21T23:00:20.011Z,100091.09
2023-12-21T23:02:52.464Z,100139.28
2023-12-21T23:05:24.482Z,100126.59
2023-12-21T23:07:56.504Z,100143.75
2023-12-21T23:10:28.664Z,100134.63
2023-12-21T23:13:00.614Z,100097.78
2023-12-21T23:15:32.600Z,100122.16
2023-12-21T23:18:04.993Z,100137.78
2023-12-21T23:20:37.015Z,100140.41
2023-12-21T23:23:09.077Z,100125.63
2023-12-21T23:25:41.113Z,100129.03
2023-12-21T23:28:13.075Z,100132.91
2023-12-21T23:30:45.304Z,100143.38
2023-12-21T23:33:17.935Z,100131.28
2023-12-21T23:35:50.045Z,100139.91
2023-12-21T23:38:22.010Z,100135.56
2023-12-21T23:40:54.035Z,100121.41
2023-12-21T23:43:26.071Z,100120.66
2023-12-21T23:45:58.360Z,100118.13
2023-12-21T23:48:30.457Z,100106.78
2023-12-21T23:51:02.519Z,100116.50
2023-12-21T23:53:34.447Z,100129.59
2023-12-21T23:56:06.604Z,100119.94
2023-12-21T23:58:38.607Z,100112.81
